Time;durP1;ratioP1;P1;durP2;ratioP2;P2;SDS_P1;SDS_P2;PMS_P1;PMS_P2;Temp;Humidity;BMP_temperature;BMP_pressure;BME280_temperature;BME280_humidity;BME280_pressure;Samples;Min_cycle;Max_cycle;Signal;HPM_P1;HPM_P2
2023/03/12 00:02:21;;;;;;;7.00;3.60;;;;;;;6.66;54.63;101081.31;5116516;28;20050;-59
2023/03/12 00:04:49;;;;;;;6.88;3.25;;;;;;;6.66;54.57;101086.66;5115276;28;20629;-59
2023/03/12 00:07:18;;;;;;;6.75;3.42;;;;;;;6.65;55.11;101087.66;5114330;28;20039;-59
2023/03/12 00:09:45;;;;;;;7.80;3.47;;;;;;;6.64;54.73;101078.81;5116353;28;20052;-59
2023/03/12 00:12:13;;;;;;;9.27;3.53;;;;;;;6.64;54.85;101078.00;5123886;28;20074;-60
2023/03/12 00:14:41;;;;;;;7.25;3.72;;;;;;;6.64;55.11;101078.00;5123543;28;20103;-59
2023/03/12 00:17:09;;;;;;;5.75;3.40;;;;;;;6.64;54.69;101078.00;5115654;27;20106;-58
2023/03/12 00:19:36;;;;;;;7.22;3.47;;;;;;;6.63;55.01;101079.00;5105944;28;20048;-59
2023/03/12 00:22:04;;;;;;;12.68;3.95;;;;;;;6.63;54.57;101071.81;5121249;28;20051;-58
2023/03/12 00:24:33;;;;;;;11.10;3.35;;;;;;;6.60;54.71;101066.88;5123704;28;20040;-59
2023/03/12 00:27:01;;;;;;;6.53;3.58;;;;;;;6.61;54.95;101051.66;5112609;28;20058;-59
2023/03/12 00:29:29;;;;;;;6.95;3.67;;;;;;;6.60;54.61;101052.69;5113904;28;20067;-59
2023/03/12 00:31:57;;;;;;;8.70;3.10;;;;;;;6.59;55.11;101051.03;5110124;28;20490;-59
2023/03/12 00:34:24;;;;;;;8.27;3.28;;;;;;;6.58;54.94;101047.53;5120662;28;20071;-59
2023/03/12 00:36:52;;;;;;;9.55;3.60;;;;;;;6.55;54.48;101034.56;5109424;28;20047;-59
2023/03/12 00:39:20;;;;;;;7.18;3.08;;;;;;;6.58;54.95;101028.84;5117032;28;20104;-59
2023/03/12 00:41:49;;;;;;;7.47;4.18;;;;;;;6.57;54.93;101027.19;5122137;28;20084;-59
2023/03/12 00:44:18;;;;;;;8.63;3.55;;;;;;;6.56;55.26;101033.56;5117758;28;20047;-59
2023/03/12 00:46:46;;;;;;;6.40;3.17;;;;;;;6.56;54.68;101035.41;5121504;28;20467;-59
2023/03/12 00:49:14;;;;;;;8.73;3.95;;;;;;;6.55;54.51;101036.41;5118626;28;20451;-59
2023/03/12 00:51:42;;;;;;;5.68;3.25;;;;;;;6.56;54.44;101030.06;5109880;28;20046;-59
2023/03/12 00:54:09;;;;;;;9.68;3.45;;;;;;;6.56;54.65;101022.03;5111785;28;20126;-59
2023/03/12 00:56:37;;;;;;;7.55;3.63;;;;;;;6.55;54.28;101023.88;5120435;28;20488;-59
2023/03/12 00:59:06;;;;;;;8.20;3.53;;;;;;;6.54;54.81;101019.56;5118499;28;20040;-59
2023/03/12 01:01:34;;;;;;;8.05;3.22;;;;;;;6.53;54.75;101023.25;5107722;28;20139;-59
2023/03/12 01:04:02;;;;;;;10.02;3.95;;;;;;;6.53;55.05;101021.41;5108958;28;20078;-59
2023/03/12 01:06:30;;;;;;;9.52;3.42;;;;;;;6.53;54.45;101025.91;5123408;28;20444;-59
2023/03/12 01:08:58;;;;;;;8.18;3.28;;;;;;;6.51;55.07;101018.09;5118096;28;20063;-59
2023/03/12 01:11:26;;;;;;;7.25;3.05;;;;;;;6.50;54.73;101024.47;5122135;28;20130;-59
2023/03/12 01:13:53;;;;;;;7.75;3.58;;;;;;;6.50;55.05;101019.13;5122325;28;20074;-59
2023/03/12 01:16:26;;;;;;;6.90;3.10;;;;;;;6.49;54.51;101009.47;5122745;28;20082;-60
2023/03/12 01:18:54;;;;;;;7.43;3.60;;;;;;;6.50;54.48;101002.28;5121163;28;20069;-59
2023/03/12 01:21:22;;;;;;;7.15;3.50;;;;;;;6.50;55.04;101002.28;5115157;28;20075;-59
2023/03/12 01:23:51;;;;;;;6.80;3.35;;;;;;;6.50;54.68;100997.75;5116402;28;20048;-58
2023/03/12 01:26:19;;;;;;;7.63;3.65;;;;;;;6.51;54.90;100994.06;5109486;28;20077;-58
2023/03/12 01:28:47;;;;;;;7.35;4.00;;;;;;;6.51;54.66;100990.56;5109840;28;20070;-59
2023/03/12 01:31:17;;;;;;;6.20;3.40;;;;;;;6.45;54.54;100975.31;5116087;28;20102;-58
2023/03/12 01:33:48;;;;;;;6.03;3.25;;;;;;;6.50;54.80;100992.41;5114792;28;20067;-60
2023/03/12 01:36:18;;;;;;;7.88;3.28;;;;;;;6.51;54.72;100993.25;5119659;28;20055;-59
2023/03/12 01:38:46;;;;;;;10.80;3.08;;;;;;;6.49;55.27;101000.63;5108508;28;20044;-59
2023/03/12 01:41:13;;;;;;;6.68;3.40;;;;;;;6.49;54.53;101001.44;5116669;28;20048;-58
2023/03/12 01:43:42;;;;;;;9.35;3.20;;;;;;;6.50;54.87;101003.09;5116067;28;20103;-59
2023/03/12 01:46:25;;;;;;;7.03;3.15;;;;;;;6.50;54.74;100991.59;5109370;28;20039;-59
2023/03/12 01:48:58;;;;;;;7.97;3.08;;;;;;;6.50;54.81;100992.41;5102540;28;20079;-59
2023/03/12 01:51:30;;;;;;;7.30;3.40;;;;;;;6.47;54.75;100978.63;5116926;28;20274;-58
2023/03/12 01:54:00;;;;;;;7.10;3.80;;;;;;;6.49;55.10;100977.41;5108152;28;20490;-58
2023/03/12 01:56:33;;;;;;;8.10;3.47;;;;;;;6.49;54.92;100973.91;5120584;28;20044;-59
2023/03/12 01:59:05;;;;;;;6.30;3.28;;;;;;;6.48;54.95;100967.75;5123190;28;20047;-59
2023/03/12 02:01:33;;;;;;;11.15;3.72;;;;;;;6.48;54.72;100966.94;5124226;28;20043;-58
2023/03/12 02:04:03;;;;;;;9.63;3.17;;;;;;;6.50;55.09;100967.56;5120779;27;20042;-59
2023/03/12 02:06:37;;;;;;;7.78;3.40;;;;;;;6.48;55.01;100964.25;5117496;28;20100;-59
2023/03/12 02:09:07;;;;;;;6.20;3.08;;;;;;;6.47;54.90;100958.09;5112504;28;20111;-59
2023/03/12 02:11:35;;;;;;;11.10;3.47;;;;;;;6.44;54.87;100950.47;5115570;28;20105;-59
2023/03/12 02:14:02;;;;;;;6.15;3.10;;;;;;;6.46;55.19;100955.63;5123325;28;20098;-58
2023/03/12 02:16:30;;;;;;;6.97;3.38;;;;;;;6.46;55.18;100947.59;5118085;28;20085;-59
2023/03/12 02:19:01;;;;;;;7.55;3.25;;;;;;;6.44;55.23;100939.78;5113114;27;20051;-59
2023/03/12 02:21:34;;;;;;;6.53;3.30;;;;;;;6.43;55.39;100939.97;5125898;28;20111;-59
2023/03/12 02:24:08;;;;;;;7.78;3.47;;;;;;;6.42;55.14;100931.16;5113081;28;20044;-59
2023/03/12 02:26:39;;;;;;;8.13;3.30;;;;;;;6.41;55.26;100934.84;5122884;28;20053;-58
2023/03/12 02:29:09;;;;;;;8.65;2.90;;;;;;;6.41;55.47;100924.16;5125710;28;20063;-59
2023/03/12 02:31:40;;;;;;;7.95;3.55;;;;;;;6.40;55.17;100921.69;5119667;28;20044;-59
2023/03/12 02:34:09;;;;;;;9.05;3.17;;;;;;;6.39;54.90;100931.53;5121449;28;20061;-59
2023/03/12 02:36:36;;;;;;;12.55;3.40;;;;;;;6.39;55.26;100928.88;5120084;28;20048;-59
2023/03/12 02:39:04;;;;;;;6.13;3.67;;;;;;;6.37;55.14;100927.41;5112302;28;20143;-59
2023/03/12 02:41:36;;;;;;;7.20;3.45;;;;;;;6.39;54.99;100926.19;5124284;28;20059;-57
2023/03/12 02:44:10;;;;;;;6.70;3.78;;;;;;;6.39;54.99;100923.53;5123666;28;20454;-60
2023/03/12 02:46:40;;;;;;;9.10;3.20;;;;;;;6.37;55.35;100933.56;5115894;28;20100;-59
2023/03/12 02:49:10;;;;;;;6.55;3.08;;;;;;;6.38;55.14;100935.22;5119538;28;20053;-59
2023/03/12 02:51:38;;;;;;;7.63;3.30;;;;;;;6.37;55.08;100936.25;5117383;28;20051;-59
2023/03/12 02:54:07;;;;;;;7.80;3.05;;;;;;;6.38;55.12;100935.22;5110406;28;20047;-59
2023/03/12 02:56:35;;;;;;;9.43;3.80;;;;;;;6.37;55.40;100940.75;5123396;28;20106;-59
2023/03/12 02:59:04;;;;;;;7.65;3.95;;;;;;;6.37;55.22;100935.41;5124237;28;20054;-59
2023/03/12 03:01:32;;;;;;;7.10;4.05;;;;;;;6.36;55.29;100933.75;5123896;27;20079;-59
2023/03/12 03:04:01;;;;;;;8.70;3.45;;;;;;;6.36;55.27;100931.91;5113785;28;20054;-59
2023/03/12 03:06:29;;;;;;;4.97;2.85;;;;;;;6.34;55.59;100931.28;5114849;27;20056;-59
2023/03/12 03:08:58;;;;;;;6.18;3.47;;;;;;;6.35;55.71;100932.94;5111410;28;20055;-59
2023/03/12 03:11:25;;;;;;;9.57;4.00;;;;;;;6.34;55.76;100927.78;5117688;28;20074;-59
2023/03/12 03:13:54;;;;;;;7.03;3.20;;;;;;;6.34;55.85;100928.63;5116258;27;20040;-58
2023/03/12 03:16:24;;;;;;;8.10;3.30;;;;;;;6.31;55.53;100923.66;5111930;28;20044;-59
2023/03/12 03:18:51;;;;;;;6.80;3.22;;;;;;;6.32;55.80;100922.66;5116083;28;20048;-57
2023/03/12 03:21:19;;;;;;;9.13;3.60;;;;;;;6.31;56.26;100926.34;5118937;28;20384;-59
2023/03/12 03:23:49;;;;;;;6.10;3.38;;;;;;;6.32;56.48;100919.97;5115591;28;20050;-58
2023/03/12 03:26:19;;;;;;;9.40;4.07;;;;;;;6.31;56.13;100909.50;5123396;28;20668;-60
2023/03/12 03:28:47;;;;;;;5.72;3.22;;;;;;;6.31;56.41;100904.97;5121429;28;20075;-59
2023/03/12 03:31:15;;;;;;;8.05;3.78;;;;;;;6.31;56.19;100906.81;5119540;28;20165;-59
2023/03/12 03:33:44;;;;;;;8.73;3.30;;;;;;;6.31;56.62;100904.16;5113789;28;20040;-59
2023/03/12 03:36:13;;;;;;;6.72;3.05;;;;;;;6.30;56.26;100905.16;5118168;28;20157;-59
2023/03/12 03:38:45;;;;;;;6.00;3.08;;;;;;;6.28;56.57;100900.03;5107742;28;20044;-59
2023/03/12 03:41:13;;;;;;;5.90;3.42;;;;;;;6.30;56.46;100902.50;5121831;28;20061;-59
2023/03/12 03:43:41;;;;;;;7.05;3.53;;;;;;;6.28;56.72;100901.88;5118971;28;20043;-59
2023/03/12 03:46:11;;;;;;;7.30;3.20;;;;;;;6.28;56.79;100909.88;5121129;28;20370;-59
2023/03/12 03:48:39;;;;;;;7.72;3.53;;;;;;;6.28;56.41;100905.38;5117188;28;20043;-59
2023/03/12 03:51:10;;;;;;;10.02;3.38;;;;;;;6.26;56.80;100882.56;5116219;28;20066;-59
2023/03/12 03:53:38;;;;;;;8.48;3.53;;;;;;;6.27;57.17;100879.69;5108931;28;20631;-60
2023/03/12 03:56:07;;;;;;;8.45;3.13;;;;;;;6.29;56.91;100869.66;5110742;28;20063;-59
2023/03/12 03:58:35;;;;;;;9.63;3.30;;;;;;;6.28;57.01;100859.16;5123056;28;20055;-59
2023/03/12 04:01:03;;;;;;;9.82;3.78;;;;;;;6.28;57.22;100849.31;5117969;28;20138;-59
2023/03/12 04:03:31;;;;;;;6.88;3.47;;;;;;;6.29;57.32;100847.47;5114228;28;20083;-59
2023/03/12 04:06:00;;;;;;;7.80;4.28;;;;;;;6.29;57.14;100847.47;5123875;28;20060;-59
2023/03/12 04:08:31;;;;;;;9.75;3.17;;;;;;;6.29;56.93;100858.16;5121579;28;20058;-58
2023/03/12 04:10:59;;;;;;;6.22;3.25;;;;;;;6.27;57.37;100861.00;5120984;28;20107;-59
2023/03/12 04:13:26;;;;;;;5.03;3.10;;;;;;;6.27;57.09;100861.00;5120038;28;20047;-59
2023/03/12 04:15:54;;;;;;;6.25;3.10;;;;;;;6.27;57.00;100852.19;5120186;28;20050;-59
2023/03/12 04:18:22;;;;;;;8.40;3.03;;;;;;;6.28;57.20;100852.00;5121560;28;20098;-59
2023/03/12 04:20:50;;;;;;;8.57;3.42;;;;;;;6.27;56.86;100855.69;5116302;28;20048;-59
2023/03/12 04:23:18;;;;;;;7.00;3.95;;;;;;;6.29;57.49;100834.97;5123403;28;20053;-59
2023/03/12 04:25:47;;;;;;;5.93;3.05;;;;;;;6.28;57.23;100835.16;5114423;28;20378;-59
2023/03/12 04:28:14;;;;;;;6.30;3.13;;;;;;;6.28;57.04;100827.97;5110596;28;20170;-59
2023/03/12 04:30:42;;;;;;;7.97;3.28;;;;;;;6.26;57.08;100830.00;5122908;28;20344;-60
2023/03/12 04:33:10;;;;;;;5.47;3.05;;;;;;;6.25;57.58;100831.03;5121182;28;20126;-59
2023/03/12 04:35:38;;;;;;;7.28;4.03;;;;;;;6.28;57.06;100835.16;5121741;28;20128;-59
2023/03/12 04:38:06;;;;;;;7.10;3.35;;;;;;;6.26;57.43;100822.00;5115035;28;20051;-59
2023/03/12 04:40:33;;;;;;;6.82;2.97;;;;;;;6.26;57.51;100813.16;5111312;28;20071;-59
2023/03/12 04:43:02;;;;;;;10.00;3.50;;;;;;;6.25;57.59;100803.50;5109124;28;20052;-59
2023/03/12 04:45:30;;;;;;;7.57;3.65;;;;;;;6.24;57.39;100808.03;5114263;28;20381;-59
2023/03/12 04:47:58;;;;;;;7.53;2.75;;;;;;;6.25;57.61;100792.84;5110205;28;20154;-59
2023/03/12 04:50:26;;;;;;;6.03;3.10;;;;;;;6.24;57.60;100804.53;5120200;28;20134;-59
2023/03/12 04:52:53;;;;;;;8.05;3.45;;;;;;;6.25;57.60;100799.00;5119581;28;20059;-58
2023/03/12 04:55:21;;;;;;;7.35;2.75;;;;;;;6.22;57.78;100807.41;5119349;28;20032;-59
2023/03/12 04:57:49;;;;;;;6.25;2.95;;;;;;;6.23;57.73;100810.88;5119494;28;20074;-59
2023/03/12 05:00:18;;;;;;;6.40;3.05;;;;;;;6.22;57.99;100807.41;5119374;28;20130;-59
2023/03/12 05:02:46;;;;;;;9.73;3.03;;;;;;;6.21;57.96;100803.06;5113527;28;20050;-59
2023/03/12 05:05:14;;;;;;;5.97;2.97;;;;;;;6.22;57.69;100793.22;5110394;28;20070;-59
2023/03/12 05:07:42;;;;;;;6.43;3.05;;;;;;;6.22;57.70;100786.03;5119172;28;20056;-57
2023/03/12 05:10:10;;;;;;;9.50;2.88;;;;;;;6.21;57.58;100787.06;5120435;28;20110;-59
2023/03/12 05:12:38;;;;;;;6.70;3.10;;;;;;;6.22;57.76;100778.03;5111962;28;20072;-60
2023/03/12 05:15:07;;;;;;;7.47;3.22;;;;;;;6.21;57.65;100773.72;5107995;28;20050;-60
2023/03/12 05:17:36;;;;;;;6.68;2.70;;;;;;;6.20;57.90;100770.22;5121996;28;20128;-59
2023/03/12 05:20:05;;;;;;;11.88;3.15;;;;;;;6.19;57.85;100760.56;5122151;28;20071;-60
2023/03/12 05:22:32;;;;;;;7.38;3.10;;;;;;;6.19;58.13;100757.91;5118530;28;20047;-60
2023/03/12 05:25:00;;;;;;;6.20;3.00;;;;;;;6.20;58.00;100756.88;5112712;28;20120;-60
2023/03/12 05:27:28;;;;;;;4.95;2.40;;;;;;;6.22;58.00;100758.53;5107272;28;20146;-60
2023/03/12 05:29:58;;;;;;;5.43;2.55;;;;;;;6.20;58.38;100759.56;5116737;28;20066;-58
2023/03/12 05:32:26;;;;;;;7.15;2.60;;;;;;;6.20;58.47;100759.56;5108807;28;20070;-58
2023/03/12 05:34:55;;;;;;;12.38;3.15;;;;;;;6.19;58.44;100760.56;5116628;28;20107;-58
2023/03/12 05:37:23;;;;;;;7.55;2.63;;;;;;;6.18;58.51;100761.59;5125183;28;20065;-58
2023/03/12 05:39:51;;;;;;;5.80;2.80;;;;;;;6.19;58.57;100767.75;5121108;28;20079;-57
2023/03/12 05:42:18;;;;;;;8.02;2.90;;;;;;;6.19;58.49;100762.41;5117283;28;20463;-58
2023/03/12 05:44:46;;;;;;;7.75;2.85;;;;;;;6.19;58.44;100759.75;5113015;28;20131;-59
2023/03/12 05:47:14;;;;;;;5.47;2.30;;;;;;;6.19;58.44;100751.75;5115185;28;20073;-59
2023/03/12 05:49:43;;;;;;;5.55;2.35;;;;;;;6.20;58.79;100740.88;5115912;27;20475;-59
2023/03/12 05:52:12;;;;;;;7.15;3.00;;;;;;;6.19;58.77;100743.75;5120372;28;20122;-59
2023/03/12 05:54:39;;;;;;;6.68;2.45;;;;;;;6.17;58.78;100738.59;5117272;27;20143;-58
2023/03/12 05:57:07;;;;;;;6.57;2.45;;;;;;;6.17;58.93;100743.13;5116849;28;20437;-58
2023/03/12 05:59:35;;;;;;;6.47;2.30;;;;;;;6.17;58.85;100741.28;5114209;28;20135;-59
2023/03/12 06:02:03;;;;;;;5.53;2.83;;;;;;;6.18;58.94;100739.44;4762341;28;9999845;-59
2023/03/12 06:04:30;;;;;;;6.78;2.50;;;;;;;6.27;58.95;100738.25;5110410;28;20051;-59
2023/03/12 06:06:58;;;;;;;8.65;2.58;;;;;;;6.44;58.23;100749.44;5117815;28;20501;-60
2023/03/12 06:09:27;;;;;;;8.13;2.75;;;;;;;6.62;58.12;100749.72;5115625;28;20071;-60
2023/03/12 06:11:55;;;;;;;6.85;2.47;;;;;;;6.84;57.32;100753.13;5117005;28;20051;-59
2023/03/12 06:14:23;;;;;;;4.47;2.08;;;;;;;7.00;57.49;100750.06;5115564;28;20171;-59
2023/03/12 06:16:50;;;;;;;5.47;2.45;;;;;;;7.23;55.94;100748.88;5117903;28;20051;-59
2023/03/12 06:19:18;;;;;;;5.55;2.35;;;;;;;7.40;55.80;100747.47;5113411;28;20327;-59
2023/03/12 06:21:47;;;;;;;4.32;2.30;;;;;;;7.55;55.54;100748.13;5118233;28;20043;-59
2023/03/12 06:24:15;;;;;;;5.97;2.33;;;;;;;7.71;55.16;100760.25;5110019;28;20063;-58
2023/03/12 06:26:44;;;;;;;7.13;2.22;;;;;;;7.88;54.10;100752.66;5119507;28;20065;-58
2023/03/12 06:29:12;;;;;;;6.13;2.42;;;;;;;8.02;53.82;100771.19;5121670;28;20063;-57
2023/03/12 06:31:40;;;;;;;7.80;2.28;;;;;;;8.13;54.01;100765.19;5121894;28;20078;-59
2023/03/12 06:34:09;;;;;;;6.85;2.28;;;;;;;8.25;53.89;100767.25;5119834;28;20081;-59
2023/03/12 06:36:37;;;;;;;5.25;2.17;;;;;;;8.20;53.47;100757.16;5112304;28;20551;-61
2023/03/12 06:39:07;;;;;;;6.18;1.92;;;;;;;8.07;54.20;100749.16;5117592;28;20092;-61
2023/03/12 06:41:35;;;;;;;7.13;2.50;;;;;;;7.85;55.18;100753.88;5114984;28;20062;-60
2023/03/12 06:44:05;;;;;;;5.70;2.58;;;;;;;7.66;55.07;100749.34;5118356;28;20081;-59
2023/03/12 06:46:33;;;;;;;7.25;2.55;;;;;;;7.45;55.91;100737.81;5110430;28;20135;-58
2023/03/12 06:49:01;;;;;;;3.35;2.00;;;;;;;7.40;56.30;100736.78;5114837;28;20052;-61
2023/03/12 06:51:29;;;;;;;6.70;2.55;;;;;;;7.28;57.32;100728.53;5113998;28;20115;-60
2023/03/12 06:53:56;;;;;;;5.20;2.17;;;;;;;7.18;57.21;100722.75;5114880;27;20044;-60
2023/03/12 06:56:24;;;;;;;5.03;1.95;;;;;;;7.08;57.60;100717.81;5112324;28;20564;-60
2023/03/12 06:58:52;;;;;;;5.57;2.17;;;;;;;7.02;57.83;100715.13;5116882;28;20043;-60
2023/03/12 07:01:21;;;;;;;7.32;2.10;;;;;;;6.97;57.99;100720.25;5111944;27;20043;-59
2023/03/12 07:03:49;;;;;;;9.80;3.15;;;;;;;6.92;58.54;100718.22;5112984;28;20044;-58
2023/03/12 07:06:19;;;;;;;4.32;1.70;;;;;;;6.89;58.75;100709.78;5114554;28;20071;-59
2023/03/12 07:08:47;;;;;;;4.53;2.15;;;;;;;6.85;58.34;100707.50;5117250;28;20131;-59
2023/03/12 07:11:16;;;;;;;4.35;2.10;;;;;;;6.81;58.92;100710.78;5106147;28;20155;-58
2023/03/12 07:13:44;;;;;;;4.13;2.15;;;;;;;6.78;58.83;100705.84;5113553;27;20051;-58
2023/03/12 07:16:12;;;;;;;7.50;3.05;;;;;;;6.76;61.57;100707.88;5117124;28;20070;-61
2023/03/12 07:18:41;;;;;;;12.80;2.80;;;;;;;6.68;61.68;100705.38;5121239;27;20423;-59
2023/03/12 07:21:09;;;;;;;6.90;3.13;;;;;;;6.64;60.67;100709.47;5114160;28;20058;-58
2023/03/12 07:23:36;;;;;;;5.38;2.38;;;;;;;6.65;60.43;100711.94;5120477;28;20108;-58
2023/03/12 07:26:05;;;;;;;6.45;2.30;;;;;;;6.65;60.79;100719.13;5113719;28;20048;-58
2023/03/12 07:28:33;;;;;;;4.90;2.35;;;;;;;6.65;60.42;100714.63;5112152;28;20085;-58
2023/03/12 07:31:01;;;;;;;7.72;2.80;;;;;;;6.64;60.61;100715.66;5113922;28;20052;-57
2023/03/12 07:33:29;;;;;;;7.88;2.45;;;;;;;6.77;60.23;100721.03;5112129;28;20147;-58
2023/03/12 07:35:58;;;;;;;4.60;2.15;;;;;;;6.96;59.18;100715.94;5106735;28;20048;-59
2023/03/12 07:38:26;;;;;;;4.95;2.58;;;;;;;7.17;58.95;100718.44;5120574;28;20367;-59
2023/03/12 07:40:55;;;;;;;6.57;2.45;;;;;;;7.36;58.20;100720.34;5118538;28;20055;-58
2023/03/12 07:43:24;;;;;;;5.03;2.80;;;;;;;7.54;58.18;100721.59;5115427;27;20108;-58
2023/03/12 07:45:53;;;;;;;5.95;2.50;;;;;;;7.67;57.50;100722.41;5118737;28;20039;-58
2023/03/12 07:48:20;;;;;;;3.97;2.03;;;;;;;7.83;57.03;100727.34;5106835;28;20044;-58
2023/03/12 07:50:48;;;;;;;4.97;1.95;;;;;;;7.97;56.14;100728.16;5115349;27;20043;-58
2023/03/12 07:53:17;;;;;;;4.25;2.17;;;;;;;8.16;55.84;100729.16;5118661;28;20075;-59
2023/03/12 07:55:46;;;;;;;6.35;1.95;;;;;;;8.29;55.61;100718.41;5105615;28;20134;-59
2023/03/12 07:58:15;;;;;;;7.60;2.58;;;;;;;8.34;55.85;100713.28;5113280;27;20726;-59
2023/03/12 08:00:43;;;;;;;3.90;2.40;;;;;;;8.27;56.06;100711.63;5113398;28;20112;-58
2023/03/12 08:03:11;;;;;;;4.80;2.33;;;;;;;8.09;56.21;100712.28;5110711;28;20117;-59
2023/03/12 08:05:40;;;;;;;5.18;2.53;;;;;;;7.92;56.84;100719.09;5118316;28;20052;-58
2023/03/12 08:08:08;;;;;;;6.03;2.30;;;;;;;7.73;58.10;100718.91;5108029;28;20404;-59
2023/03/12 08:10:38;;;;;;;5.78;3.15;;;;;;;7.57;58.73;100713.97;5112737;28;20059;-59
2023/03/12 08:13:05;;;;;;;4.13;1.88;;;;;;;7.47;58.80;100708.19;5112544;28;20078;-61
2023/03/12 08:15:33;;;;;;;4.65;2.33;;;;;;;7.39;59.12;100721.78;5114455;28;20055;-60
2023/03/12 08:18:01;;;;;;;4.93;2.72;;;;;;;7.30;59.59;100706.94;5108682;28;20040;-60
2023/03/12 08:20:29;;;;;;;6.00;2.80;;;;;;;7.24;58.91;100716.59;5105377;28;20055;-60
2023/03/12 08:22:57;;;;;;;6.50;2.60;;;;;;;7.18;59.80;100728.13;5105365;28;20107;-61
2023/03/12 08:25:24;;;;;;;8.02;2.80;;;;;;;7.16;60.40;100712.28;5103535;28;20119;-60
2023/03/12 08:27:54;;;;;;;3.47;2.40;;;;;;;7.11;59.85;100709.38;5118916;28;20473;-60
2023/03/12 08:30:22;;;;;;;4.63;2.40;;;;;;;7.09;60.54;100718.63;5122573;27;20441;-60
2023/03/12 08:32:49;;;;;;;6.97;3.08;;;;;;;7.04;60.81;100724.59;5120786;28;20151;-60
2023/03/12 08:35:17;;;;;;;5.93;2.42;;;;;;;7.03;60.59;100724.78;5103479;28;20083;-60
2023/03/12 08:37:45;;;;;;;6.45;2.35;;;;;;;6.99;61.08;100734.22;5104911;28;20047;-59
2023/03/12 08:40:13;;;;;;;9.52;2.55;;;;;;;6.99;61.92;100739.56;5112019;28;20079;-60
2023/03/12 08:42:42;;;;;;;5.78;2.40;;;;;;;6.95;62.21;100738.31;5119739;28;20051;-60
2023/03/12 08:45:13;;;;;;;6.82;3.45;;;;;;;6.96;62.27;100742.66;5123702;28;20040;-60
2023/03/12 08:47:40;;;;;;;5.22;2.70;;;;;;;6.95;61.89;100749.84;5118296;28;20159;-60
2023/03/12 08:50:10;;;;;;;5.22;2.88;;;;;;;6.94;64.50;100750.03;5111766;28;20051;-61
2023/03/12 08:52:38;;;;;;;6.10;3.15;;;;;;;6.91;66.62;100759.31;5118934;28;20279;-59
2023/03/12 08:55:06;;;;;;;5.60;2.78;;;;;;;6.91;66.46;100750.47;5118235;28;20056;-59
2023/03/12 08:57:34;;;;;;;5.80;3.30;;;;;;;6.90;66.34;100756.84;5117642;28;20046;-60
2023/03/12 09:00:04;;;;;;;6.35;2.83;;;;;;;6.90;65.61;100752.31;5115487;28;20050;-60
2023/03/12 09:02:33;;;;;;;6.10;3.45;;;;;;;6.91;66.02;100753.97;5102457;28;20060;-60
2023/03/12 09:05:00;;;;;;;4.38;2.70;;;;;;;7.02;65.53;100761.38;5122739;28;20077;-62
2023/03/12 09:07:30;;;;;;;6.50;3.40;;;;;;;7.18;65.24;100760.19;5124235;28;20040;-62
2023/03/12 09:09:58;;;;;;;6.22;3.13;;;;;;;7.38;64.93;100755.69;5122323;28;20066;-60
2023/03/12 09:12:26;;;;;;;4.22;2.95;;;;;;;7.58;64.25;100757.59;5119497;28;20078;-59
2023/03/12 09:14:53;;;;;;;5.68;3.13;;;;;;;7.79;63.34;100757.38;5121408;28;20441;-59
2023/03/12 09:17:32;;;;;;;4.95;3.03;;;;;;;7.98;62.97;100756.56;5125554;28;20047;-59
2023/03/12 09:20:00;;;;;;;7.45;3.42;;;;;;;8.17;63.45;100749.53;5119875;28;20048;-59
2023/03/12 09:22:29;;;;;;;5.00;3.00;;;;;;;8.34;62.45;100757.97;5123210;28;20097;-59
2023/03/12 09:24:57;;;;;;;6.75;3.63;;;;;;;8.47;62.80;100745.38;5124325;27;20060;-59
2023/03/12 09:27:25;;;;;;;8.75;3.83;;;;;;;8.55;61.35;100755.03;5117659;28;20103;-59
2023/03/12 09:29:54;;;;;;;8.10;3.38;;;;;;;8.50;62.18;100751.34;5127291;28;20131;-58
2023/03/12 09:32:29;;;;;;;4.80;2.70;;;;;;;8.39;61.68;100745.63;5116763;28;20117;-58
2023/03/12 09:34:58;;;;;;;5.07;2.95;;;;;;;8.26;62.72;100752.81;5126477;28;20044;-59
2023/03/12 09:37:26;;;;;;;5.80;3.70;;;;;;;8.07;65.00;100763.34;5125832;28;20142;-59
2023/03/12 09:39:54;;;;;;;5.43;4.13;;;;;;;7.93;64.81;100753.69;5113096;27;20052;-59
2023/03/12 09:42:24;;;;;;;4.75;3.25;;;;;;;7.82;64.50;100757.81;5118904;27;20046;-60
2023/03/12 09:44:55;;;;;;;6.95;3.72;;;;;;;7.74;66.26;100757.19;5120137;28;20075;-59
2023/03/12 09:47:28;;;;;;;5.57;3.78;;;;;;;7.70;65.63;100756.78;5120751;28;20043;-59
2023/03/12 09:50:03;;;;;;;5.88;3.70;;;;;;;7.64;65.39;100764.78;5119800;28;20082;-60
2023/03/12 09:52:35;;;;;;;4.88;3.83;;;;;;;7.61;65.28;100770.53;5123060;28;20162;-60
2023/03/12 09:55:07;;;;;;;7.30;3.90;;;;;;;7.51;65.84;100770.94;5112943;28;20082;-60
2023/03/12 09:57:35;;;;;;;5.93;3.83;;;;;;;7.57;66.63;100782.69;5125519;28;20043;-60
2023/03/12 10:00:06;;;;;;;5.22;3.92;;;;;;;7.54;66.45;100791.09;5116224;28;20065;-59
2023/03/12 10:02:53;;;;;;;7.88;3.85;;;;;;;7.51;66.31;100795.84;5121780;28;20043;-60
2023/03/12 10:05:35;;;;;;;7.50;4.80;;;;;;;7.50;66.85;100788.84;5126730;28;20147;-62
2023/03/12 10:08:07;;;;;;;6.28;3.90;;;;;;;7.48;67.19;100792.75;5119715;28;20068;-59
2023/03/12 10:10:55;;;;;;;6.80;4.43;;;;;;;7.47;67.55;100788.41;5122914;28;20115;-59
2023/03/12 10:13:44;;;;;;;6.30;5.32;;;;;;;7.48;68.78;100796.25;5123965;28;20075;-60
2023/03/12 10:16:22;;;;;;;8.70;5.55;;;;;;;7.43;68.91;100784.50;5114485;28;20067;-58
2023/03/12 10:19:09;;;;;;;7.38;4.90;;;;;;;7.48;68.43;100796.25;5123334;28;20047;-61
2023/03/12 10:21:49;;;;;;;9.57;5.25;;;;;;;7.44;68.20;100786.16;5119231;27;20047;-59
2023/03/12 10:24:30;;;;;;;8.55;5.90;;;;;;;7.47;68.50;100791.09;5125272;28;20054;-59
2023/03/12 10:27:00;;;;;;;12.90;5.38;;;;;;;7.45;68.21;100793.97;4761460;28;10000152;-59
2023/03/12 10:29:30;;;;;;;8.23;5.65;;;;;;;7.47;68.35;100794.59;5117533;28;20070;-60
2023/03/12 10:32:02;;;;;;;8.18;5.47;;;;;;;7.50;68.03;100794.19;5120659;28;20059;-59
2023/03/12 10:34:36;;;;;;;10.10;6.60;;;;;;;7.50;69.59;100788.00;5121176;28;20146;-60
2023/03/12 10:37:15;;;;;;;11.90;6.00;;;;;;;7.49;68.70;100789.88;5116283;27;20063;-60
2023/03/12 10:39:43;;;;;;;10.27;6.50;;;;;;;7.50;68.62;100790.69;5116795;28;20079;-59
2023/03/12 10:42:18;;;;;;;11.63;7.03;;;;;;;7.51;68.91;100797.69;5118506;27;20054;-60
2023/03/12 10:44:47;;;;;;;12.88;7.03;;;;;;;7.52;68.83;100794.00;5118341;28;20048;-59
2023/03/12 10:47:28;;;;;;;9.02;6.75;;;;;;;7.55;68.59;100790.91;5120548;27;20194;-59
2023/03/12 10:50:13;;;;;;;11.25;6.60;;;;;;;7.56;68.99;100786.38;5102037;28;20054;-59
2023/03/12 10:52:43;;;;;;;10.77;6.78;;;;;;;7.55;68.49;100779.38;5112601;28;20054;-59
2023/03/12 10:55:13;;;;;;;12.80;7.10;;;;;;;7.57;67.93;100780.00;5121511;28;20398;-59
2023/03/12 10:57:42;;;;;;;11.80;7.07;;;;;;;7.58;68.82;100789.66;5119784;28;20067;-59
2023/03/12 11:00:17;;;;;;;12.82;7.43;;;;;;;7.59;68.20;100781.44;5120388;28;20047;-58
2023/03/12 11:02:46;;;;;;;15.07;7.50;;;;;;;7.60;68.31;100790.28;5111182;28;20052;-59
2023/03/12 11:05:22;;;;;;;12.73;6.95;;;;;;;7.62;68.27;100782.88;5117344;28;20138;-58
2023/03/12 11:07:52;;;;;;;13.63;7.72;;;;;;;7.62;69.00;100789.06;5101107;28;20100;-60
2023/03/12 11:10:23;;;;;;;12.80;7.57;;;;;;;7.63;68.57;100784.53;5117881;28;20147;-59
2023/03/12 11:13:01;;;;;;;14.07;7.13;;;;;;;7.70;69.57;100802.25;5124853;28;20071;-59
2023/03/12 11:15:37;;;;;;;14.30;7.32;;;;;;;7.91;67.90;100792.38;5119631;28;20341;-58
2023/03/12 11:18:25;;;;;;;17.02;7.25;;;;;;;8.13;67.62;100789.28;5116393;27;20065;-59
2023/03/12 11:20:55;;;;;;;13.88;7.35;;;;;;;8.33;66.67;100805.34;5121633;28;20075;-62
2023/03/12 11:23:28;;;;;;;14.90;6.95;;;;;;;8.54;66.19;100801.63;5115627;28;20065;-58
2023/03/12 11:25:59;;;;;;;14.25;6.70;;;;;;;8.76;65.24;100786.88;5113528;28;20047;-60
2023/03/12 11:28:35;;;;;;;11.68;6.68;;;;;;;8.99;64.42;100805.16;5123438;28;20100;-59
2023/03/12 11:31:08;;;;;;;22.13;8.20;;;;;;;9.16;64.27;100796.63;5110762;28;20548;-62
2023/03/12 11:33:36;;;;;;;18.77;8.70;;;;;;;9.40;63.83;100801.25;5123533;28;20134;-60
2023/03/12 11:36:16;;;;;;;18.13;7.28;;;;;;;9.52;63.78;100788.78;5114334;28;20103;-60
2023/03/12 11:38:57;;;;;;;18.20;7.85;;;;;;;9.69;63.36;100794.47;5107494;28;20135;-60
2023/03/12 11:41:38;;;;;;;18.15;7.57;;;;;;;9.82;62.72;100796.22;5119588;28;20055;-58
2023/03/12 11:44:19;;;;;;;12.07;7.15;;;;;;;9.89;61.94;100794.31;5110120;28;20051;-58